Nearby METAR Reports

 

KSEE - San Diego/Santee, California, USA
Distance from station: E 4mi, 6km
Updated: 06/17/2018 5:47pm
Mostly cloudy
Mostly cloudy
 Wind from WSW
Wind: WSW 7 mph , 11 km/h
Temperature: 68°F , 20°C
Dew Point: 50°F , 10°C
Humidity: 53%
Barometer: 29.96 inHg , 1014.6 hPa
Clouds: Mostly cloudy
Visibility: 10 miles , 16 km
Cloud details: Mostly cloudy 3600 ft
2018/06/18 00:47 KSEE 180047Z 25006KT 10SM BKN036 20/10 A2996
KMYF - San Diego/Mntgmy, California, USA
Distance from station: W 6mi, 10km
Updated: 06/17/2018 6:35pm
Mostly cloudy
Mostly cloudy
 Wind from WSW
Wind: WSW 8 mph , 13 km/h
Temperature: 64°F , 18°C
Dew Point: 52°F , 11°C
Humidity: 64%
Barometer: 29.97 inHg , 1014.9 hPa
Clouds: Mostly cloudy
Visibility: 10 miles , 16 km
Cloud details: Mostly cloudy 2900 ft
2018/06/18 01:35 KMYF 180135Z 25007KT 10SM BKN029 18/11 A2997 RMK AO2 T01830106
 
KNKX - Miramar Nas/San, California, USA
Distance from station: WNW 7mi, 11km
Updated: 06/17/2018 6:31pm
Overcast
Overcast
 Wind from W
Wind: W 9 mph , 15 km/h
Temperature: 66°F , 19°C
Dew Point: 54°F , 12°C
Humidity: 64%
Barometer: 29.97 inHg , 1014.9 hPa
Clouds: Overcast
Visibility: 10 miles , 16 km
Cloud details: Overcast 3100 ft
2018/06/18 01:31 KNKX 180131Z 27008KT 10SM OVC031 19/12 A2997 RMK AO2 T01940117 $
KSAN - San Diego, California, USA
Distance from station: WSW 11mi, 17km
Updated: 06/17/2018 5:51pm
Mostly cloudy
Mostly cloudy
 Wind from SW
Wind: SW 9 mph , 15 km/h
Temperature: 66°F , 19°C
Dew Point: 52°F , 11°C
Humidity: 60%
Barometer: 29.98 inHg , 1015.2 hPa
Clouds: Mostly cloudy
Visibility: 10 miles , 16 km
Cloud details: Few Clouds 1200 ft
Few Clouds 2300 ft
Mostly cloudy 3700 ft
2018/06/18 00:51 KSAN 180051Z 22008KT 10SM FEW012 FEW023 BKN037 19/11 A2998 RMK AO2 SLP152 T01890111
 
KNZY - North Island Nas, California, USA
Distance from station: SW 13mi, 22km
Updated: 06/17/2018 5:52pm
Mostly cloudy
Mostly cloudy
 Wind from W
Wind: W 9 mph , 15 km/h
Temperature: 66°F , 19°C
Dew Point: 52°F , 11°C
Humidity: 60%
Barometer: 29.96 inHg , 1014.6 hPa
Clouds: Mostly cloudy
Visibility: 10 miles , 16 km
Cloud details: Few Clouds 1000 ft
Partly cloudy 2500 ft
Mostly cloudy 4200 ft
2018/06/18 00:52 KNZY 180052Z 26008KT 10SM FEW010 SCT025 BKN042 19/11 A2996 RMK AO2 SLP146 T01890111
KRNM - Ramona, California, USA
Distance from station: NNE 16mi, 26km
Updated: 06/17/2018 5:53pm
Clear
Clear
 Wind from W
Wind: W 12 mph , 19 km/h
Temperature: 64°F , 18°C
Dew Point: 48°F , 9°C
Humidity: 56%
Barometer: 29.96 inHg , 1014.6 hPa
Clouds: Clear
Visibility: 10 miles , 16 km
2018/06/18 00:53 KRNM 180053Z 27010KT 10SM CLR 18/09 A2996 RMK AO2 SLP136 T01830094
 
KSDM - San Diego/Brown, California, USA
Distance from station: S 16mi, 26km
Updated: 06/17/2018 5:53pm
Partly cloudy
Partly cloudy
 Wind from WSW
Wind: WSW 8 mph , 13 km/h
Temperature: 66°F , 19°C
Dew Point: 52°F , 11°C
Humidity: 60%
Barometer: 29.96 inHg , 1014.6 hPa
Clouds: Partly cloudy
Visibility: 10 miles , 16 km
Cloud details: Partly cloudy 3500 ft
2018/06/18 00:53 KSDM 180053Z 25007KT 220V280 10SM SCT035 19/11 A2996 RMK AO2 SLP144 T01890106
KNRS - Imperial Beach, California, USA
Distance from station: SSW 18mi, 29km
Updated: 06/17/2018 5:56pm
Clear
Clear
 Wind from W
Wind: W 9 mph , 15 km/h
Temperature: 66°F , 19°C
Dew Point: 52°F , 11°C
Humidity: 60%
Barometer: 29.98 inHg , 1015.2 hPa
Clouds: Clear
Visibility: 10 miles , 16 km
2018/06/18 00:56 KNRS 180056Z AUTO 27008KT 10SM CLR 19/11 A2998 RMK AO2 SLP150 T01890111
 
MMTJ - Tijuana Intl Arp, Mexico
Distance from station: S 20mi, 32km
Updated: 06/17/2018 5:41pm
Partly cloudy
Partly cloudy
 Wind from W
Wind: W 12 mph , 19 km/h
Temperature: 66°F , 19°C
Dew Point: 50°F , 10°C
Humidity: 56%
Barometer: 29.99 inHg , 1015.6 hPa
Clouds: Partly cloudy
Visibility: 10 miles , 16 km
Cloud details: Partly cloudy 3500 ft
2018/06/18 00:41 MMTJ 180041Z 27010KT 10SM SCT035 19/10 A2999 RMK 8/500
KCRQ - Carlsbad, California, USA
Distance from station: NW 26mi, 43km
Updated: 06/17/2018 6:20pm
Mostly cloudy
Mostly cloudy
 Wind from W
Wind: W 8 mph , 13 km/h
Temperature: 63°F , 17°C
Dew Point: 54°F , 12°C
Humidity: 73%
Barometer: 29.96 inHg , 1014.6 hPa
Clouds: Mostly cloudy
Visibility: 10 miles , 16 km
Cloud details: Partly cloudy 2100 ft
Mostly cloudy 3500 ft
2018/06/18 01:20 KCRQ 180120Z 26007KT 10SM SCT021 BKN035 17/12 A2996 RMK AO2 T01720122
 
KOKB - Oceanside, California, USA
Distance from station: NW 33mi, 54km
Updated: 06/17/2018 5:52pm
Clear
Clear
 Wind from WSW
Wind: WSW 10 mph , 17 km/h
Temperature: 66°F , 19°C
Dew Point: 52°F , 11°C
Humidity: 60%
Barometer: 29.96 inHg , 1014.6 hPa
Clouds: Clear
Visibility: 10 miles , 16 km
2018/06/18 00:52 KOKB 180052Z AUTO 25009KT 10SM CLR 19/11 A2996 RMK AO2 SLP144 T01940111
KCZZ - Campo, California, USA
Distance from station: ESE 35mi, 56km
Updated: 06/17/2018 5:52pm

 Wind from W
Wind: W 13 mph , 20 km/h
Temperature: 64°F , 18°C
Dew Point: 46°F , 8°C
Humidity: 52%
Barometer: 29.92 inHg , 1013.2 hPa
2018/06/18 00:52 KCZZ 180052Z AUTO 27011KT 18/08 A2992 RMK AO1 SLP111 T01780083
 
KNFG - Camp Pendleton, California, USA
Distance from station: NNW 37mi, 59km
Updated: 06/17/2018 5:55pm
Few Clouds
Few Clouds
 Wind from SW
Wind: SW 9 mph , 15 km/h
Temperature: 64°F , 18°C
Dew Point: 55°F , 13°C
Humidity: 73%
Barometer: 29.96 inHg , 1014.6 hPa
Clouds: Few Clouds
Visibility: 10 miles , 16 km
Cloud details: Few Clouds 2500 ft
Few Clouds 3100 ft
2018/06/18 00:55 KNFG 180055Z AUTO 23008KT 10SM FEW025 FEW031 18/13 A2996 RMK AO2 SLP144 T01830128
KRIV - Riverside/March, California, USA
Distance from station: N 74mi, 119km
Updated: 06/17/2018 5:58pm
Clear
Clear
 Wind from WNW
Wind: WNW 10 mph , 17 km/h
Temperature: 70°F , 21°C
Dew Point: 48°F , 9°C
Humidity: 46%
Barometer: 29.92 inHg , 1013.2 hPa
Clouds: Clear
Visibility: 10 miles , 16 km
2018/06/18 00:58 KRIV 180058Z AUTO 29009KT 10SM CLR 21/09 A2992 RMK AO2 SLP124 T02090092
 
KTRM - Thermal/Palm Spg, California, USA
Distance from station: NE 75mi, 121km
Updated: 06/17/2018 5:52pm
Clear
Clear
 Wind from N
Wind: N 15 mph , 24 km/h
Temperature: 93°F , 34°C
Dew Point: 43°F , 6°C
Humidity: 17%
Barometer: 29.67 inHg , 1004.7 hPa
Clouds: Clear
Visibility: 10 miles , 16 km
2018/06/18 00:52 KTRM 180052Z AUTO 35013KT 10SM CLR 34/06 A2967 RMK AO2 SLP049 T03440056
KPSP - Palm Springs, California, USA
Distance from station: NNE 76mi, 122km
Updated: 06/17/2018 5:53pm
Clear
Clear
 Wind from NNW
Wind: NNW 18 mph , 30 km/h, Gust: 24 mph , 39 km/h
Temperature: 91°F , 33°C
Dew Point: 37°F , 3°C
Humidity: 15%
Barometer: 29.73 inHg , 1006.8 hPa
Clouds: Clear
Visibility: 10 miles , 16 km
2018/06/18 00:53 KPSP 180053Z 33016G21KT 10SM CLR 33/03 A2973 RMK AO2 SLP063 T03280033
 
KSNA - Costa Mesa, California, USA
Distance from station: NW 76mi, 123km
Updated: 06/17/2018 5:53pm
Mostly cloudy
Mostly cloudy
 Wind from S
Wind: S 10 mph , 17 km/h
Temperature: 66°F , 19°C
Dew Point: 54°F , 12°C
Humidity: 64%
Barometer: 29.95 inHg , 1014.2 hPa
Clouds: Mostly cloudy
Visibility: 10 miles , 16 km
Cloud details: Few Clouds 2900 ft
Mostly cloudy 3700 ft
2018/06/18 00:53 KSNA 180053Z 19009KT 10SM FEW029 BKN037 19/12 A2995 RMK AO2 SLP142 T01940117
KNJK - El Centro Naf, California, USA
Distance from station: E 79mi, 127km
Updated: 06/17/2018 6:06pm
Light rain, Few clouds
Light rain, Few clouds
 Wind from WSW
Wind: WSW 32 mph , 52 km/h, Gust: 43 mph , 69 km/h
Temperature: 88°F , 31°C
Dew Point: 36°F , 2°C
Humidity: 16%
Barometer: 29.74 inHg , 1007.1 hPa
Summary: Light rain
Clouds: Few Clouds
Visibility: 4 miles , 6 km
Cloud details: Few Clouds 600 ft
2018/06/18 01:06 KNJK 180106Z AUTO 25028G37KT 4SM -RA FEW006 31/02 A2974 RMK AO2 PK WND 25037/0058 P0000 T03060022 $
 
KAJO - Corona Muni, California, USA
Distance from station: NNW 82mi, 132km
Updated: 06/17/2018 5:56pm
Clear
Clear
 Wind from W
Wind: W 12 mph , 19 km/h, Gust: 23 mph , 37 km/h
Temperature: 70°F , 21°C
Dew Point: 52°F , 11°C
Humidity: 53%
Barometer: 29.93 inHg , 1013.5 hPa
Clouds: Clear
Visibility: 10 miles , 16 km
2018/06/18 00:56 KAJO 180056Z AUTO 27010G20KT 10SM CLR 21/11 A2993 RMK AO2 SLP144 T02060106 $